sensor_id;sensor_type;location;lat;lon;timestamp;temperature;humidity
17938;DHT22;16051;53.024;8.630;2023-03-01T00:02:00;1.90;88.50
17938;DHT22;16051;53.024;8.630;2023-03-01T00:06:04;1.80;88.90
17938;DHT22;16051;53.024;8.630;2023-03-01T00:10:08;1.80;89.90
17938;DHT22;16051;53.024;8.630;2023-03-01T00:14:11;1.70;90.10
17938;DHT22;16051;53.024;8.630;2023-03-01T00:18:15;1.70;90.40
17938;DHT22;16051;53.024;8.630;2023-03-01T00:22:17;1.60;90.60
17938;DHT22;16051;53.024;8.630;2023-03-01T00:26:20;1.60;90.90
17938;DHT22;16051;53.024;8.630;2023-03-01T00:30:24;1.50;91.10
17938;DHT22;16051;53.024;8.630;2023-03-01T00:34:27;1.50;91.40
17938;DHT22;16051;53.024;8.630;2023-03-01T00:38:30;1.40;91.70
17938;DHT22;16051;53.024;8.630;2023-03-01T00:42:32;1.40;91.90
17938;DHT22;16051;53.024;8.630;2023-03-01T00:46:34;1.30;92.10
17938;DHT22;16051;53.024;8.630;2023-03-01T00:50:56;1.30;92.30
17938;DHT22;16051;53.024;8.630;2023-03-01T00:54:58;1.20;92.60
17938;DHT22;16051;53.024;8.630;2023-03-01T00:59:00;1.20;92.90
17938;DHT22;16051;53.024;8.630;2023-03-01T01:03:08;1.10;93.20
17938;DHT22;16051;53.024;8.630;2023-03-01T01:07:12;1.10;93.40
17938;DHT22;16051;53.024;8.630;2023-03-01T01:11:15;1.10;93.80
17938;DHT22;16051;53.024;8.630;2023-03-01T01:15:17;1.00;93.90
17938;DHT22;16051;53.024;8.630;2023-03-01T01:19:19;1.00;94.10
17938;DHT22;16051;53.024;8.630;2023-03-01T01:23:30;1.00;94.40
17938;DHT22;16051;53.024;8.630;2023-03-01T01:27:33;0.90;94.60
17938;DHT22;16051;53.024;8.630;2023-03-01T01:31:37;0.80;94.90
17938;DHT22;16051;53.024;8.630;2023-03-01T01:35:40;0.80;95.20
17938;DHT22;16051;53.024;8.630;2023-03-01T01:39:44;0.70;95.40
17938;DHT22;16051;53.024;8.630;2023-03-01T01:44:15;0.70;95.50
17938;DHT22;16051;53.024;8.630;2023-03-01T01:48:21;0.70;95.70
17938;DHT22;16051;53.024;8.630;2023-03-01T01:52:27;0.60;95.90
17938;DHT22;16051;53.024;8.630;2023-03-01T01:56:33;0.60;96.20
17938;DHT22;16051;53.024;8.630;2023-03-01T02:00:35;0.50;96.30
17938;DHT22;16051;53.024;8.630;2023-03-01T02:04:39;0.50;96.60
17938;DHT22;16051;53.024;8.630;2023-03-01T02:08:42;0.50;96.60
17938;DHT22;16051;53.024;8.630;2023-03-01T02:12:49;0.40;96.90
17938;DHT22;16051;53.024;8.630;2023-03-01T02:16:51;0.40;97.30
17938;DHT22;16051;53.024;8.630;2023-03-01T02:21:11;0.40;97.60
17938;DHT22;16051;53.024;8.630;2023-03-01T02:25:33;0.30;98.00
17938;DHT22;16051;53.024;8.630;2023-03-01T02:29:40;0.30;98.30
17938;DHT22;16051;53.024;8.630;2023-03-01T02:33:45;0.30;98.60
17938;DHT22;16051;53.024;8.630;2023-03-01T02:38:01;0.20;98.90
17938;DHT22;16051;53.024;8.630;2023-03-01T02:42:04;0.20;99.10
17938;DHT22;16051;53.024;8.630;2023-03-01T02:46:15;0.10;99.30
17938;DHT22;16051;53.024;8.630;2023-03-01T02:50:34;0.10;99.50
17938;DHT22;16051;53.024;8.630;2023-03-01T02:54:58;0.10;99.80
17938;DHT22;16051;53.024;8.630;2023-03-01T02:59:05;0.00;99.90
17938;DHT22;16051;53.024;8.630;2023-03-01T03:03:08;0.00;99.90
17938;DHT22;16051;53.024;8.630;2023-03-01T03:07:12;0.00;99.90
17938;DHT22;16051;53.024;8.630;2023-03-01T03:11:14;-0.10;99.90
17938;DHT22;16051;53.024;8.630;2023-03-01T03:15:16;-0.10;99.90
17938;DHT22;16051;53.024;8.630;2023-03-01T03:19:20;-0.10;99.90
17938;DHT22;16051;53.024;8.630;2023-03-01T03:23:22;-0.10;99.90
17938;DHT22;16051;53.024;8.630;2023-03-01T03:27:25;-0.20;99.90
17938;DHT22;16051;53.024;8.630;2023-03-01T03:31:27;-0.20;99.90
17938;DHT22;16051;53.024;8.630;2023-03-01T03:35:33;-0.20;99.90
17938;DHT22;16051;53.024;8.630;2023-03-01T03:39:39;-0.30;99.90
17938;DHT22;16051;53.024;8.630;2023-03-01T03:43:42;-0.30;99.90
17938;DHT22;16051;53.024;8.630;2023-03-01T03:47:45;-0.30;99.90
17938;DHT22;16051;53.024;8.630;2023-03-01T03:56:31;-0.40;99.90
17938;DHT22;16051;53.024;8.630;2023-03-01T04:00:34;-0.40;99.90
17938;DHT22;16051;53.024;8.630;2023-03-01T04:04:37;-0.40;99.90
17938;DHT22;16051;53.024;8.630;2023-03-01T04:08:41;-0.50;99.90
17938;DHT22;16051;53.024;8.630;2023-03-01T04:12:43;-0.50;99.90
17938;DHT22;16051;53.024;8.630;2023-03-01T04:16:45;-0.50;99.90
17938;DHT22;16051;53.024;8.630;2023-03-01T04:20:57;-0.50;99.90
17938;DHT22;16051;53.024;8.630;2023-03-01T04:25:01;-0.60;99.90
17938;DHT22;16051;53.024;8.630;2023-03-01T04:29:05;-0.60;99.90
17938;DHT22;16051;53.024;8.630;2023-03-01T04:33:09;-0.60;99.90
17938;DHT22;16051;53.024;8.630;2023-03-01T04:37:11;-0.70;99.90
17938;DHT22;16051;53.024;8.630;2023-03-01T04:41:38;-0.70;99.90
17938;DHT22;16051;53.024;8.630;2023-03-01T04:45:40;-0.70;99.90
17938;DHT22;16051;53.024;8.630;2023-03-01T04:49:43;-0.70;99.90
17938;DHT22;16051;53.024;8.630;2023-03-01T04:53:45;-0.80;99.90
17938;DHT22;16051;53.024;8.630;2023-03-01T04:57:48;-0.80;99.90
17938;DHT22;16051;53.024;8.630;2023-03-01T05:01:51;-0.80;99.90
17938;DHT22;16051;53.024;8.630;2023-03-01T05:05:58;-0.80;99.90
17938;DHT22;16051;53.024;8.630;2023-03-01T05:10:01;-0.90;99.90
17938;DHT22;16051;53.024;8.630;2023-03-01T05:14:06;-0.90;99.90
17938;DHT22;16051;53.024;8.630;2023-03-01T05:18:22;-0.90;99.90
17938;DHT22;16051;53.024;8.630;2023-03-01T05:22:26;-0.90;99.90
17938;DHT22;16051;53.024;8.630;2023-03-01T05:26:28;-1.00;99.90
17938;DHT22;16051;53.024;8.630;2023-03-01T05:30:32;-1.00;99.90
17938;DHT22;16051;53.024;8.630;2023-03-01T05:34:36;-1.00;99.90
17938;DHT22;16051;53.024;8.630;2023-03-01T05:38:38;-1.10;99.90
17938;DHT22;16051;53.024;8.630;2023-03-01T05:42:54;-1.10;99.90
17938;DHT22;16051;53.024;8.630;2023-03-01T05:46:58;-1.10;99.90
17938;DHT22;16051;53.024;8.630;2023-03-01T05:51:00;-1.10;99.90
17938;DHT22;16051;53.024;8.630;2023-03-01T05:55:03;-1.10;99.90
17938;DHT22;16051;53.024;8.630;2023-03-01T05:59:08;-1.10;99.90
17938;DHT22;16051;53.024;8.630;2023-03-01T06:03:13;-1.10;99.90
17938;DHT22;16051;53.024;8.630;2023-03-01T06:07:16;-1.20;99.90
17938;DHT22;16051;53.024;8.630;2023-03-01T06:11:19;-1.20;99.90
17938;DHT22;16051;53.024;8.630;2023-03-01T06:15:21;-1.10;99.90
17938;DHT22;16051;53.024;8.630;2023-03-01T06:19:25;-1.20;99.90
17938;DHT22;16051;53.024;8.630;2023-03-01T06:23:45;-1.20;99.90
17938;DHT22;16051;53.024;8.630;2023-03-01T06:27:47;-1.20;99.90
17938;DHT22;16051;53.024;8.630;2023-03-01T06:31:50;-1.20;99.90
17938;DHT22;16051;53.024;8.630;2023-03-01T06:35:56;-1.20;99.90
17938;DHT22;16051;53.024;8.630;2023-03-01T06:39:58;-1.20;99.90
17938;DHT22;16051;53.024;8.630;2023-03-01T06:44:05;-1.20;99.90
17938;DHT22;16051;53.024;8.630;2023-03-01T06:48:07;-1.20;99.90
17938;DHT22;16051;53.024;8.630;2023-03-01T06:52:11;-1.10;99.90
17938;DHT22;16051;53.024;8.630;2023-03-01T06:56:13;-1.10;99.90
17938;DHT22;16051;53.024;8.630;2023-03-01T07:00:16;-1.10;99.90
17938;DHT22;16051;53.024;8.630;2023-03-01T07:04:19;-1.00;99.90
17938;DHT22;16051;53.024;8.630;2023-03-01T07:08:25;-0.90;99.90
17938;DHT22;16051;53.024;8.630;2023-03-01T07:12:27;-0.90;99.90
17938;DHT22;16051;53.024;8.630;2023-03-01T07:16:29;-0.70;99.90
17938;DHT22;16051;53.024;8.630;2023-03-01T07:20:49;-0.60;99.90
17938;DHT22;16051;53.024;8.630;2023-03-01T07:24:52;-0.50;99.90
17938;DHT22;16051;53.024;8.630;2023-03-01T07:28:54;-0.40;99.90
17938;DHT22;16051;53.024;8.630;2023-03-01T07:33:06;-0.20;99.90
17938;DHT22;16051;53.024;8.630;2023-03-01T07:37:09;0.00;99.90
17938;DHT22;16051;53.024;8.630;2023-03-01T07:41:12;0.20;99.90
17938;DHT22;16051;53.024;8.630;2023-03-01T07:45:15;0.40;99.90
17938;DHT22;16051;53.024;8.630;2023-03-01T07:49:17;0.60;99.90
17938;DHT22;16051;53.024;8.630;2023-03-01T07:53:19;0.70;99.90
17938;DHT22;16051;53.024;8.630;2023-03-01T07:57:23;0.80;99.90
17938;DHT22;16051;53.024;8.630;2023-03-01T08:01:25;0.90;99.90
17938;DHT22;16051;53.024;8.630;2023-03-01T08:05:28;1.10;99.90
17938;DHT22;16051;53.024;8.630;2023-03-01T08:09:30;1.50;99.90
17938;DHT22;16051;53.024;8.630;2023-03-01T08:13:34;1.70;99.90
17938;DHT22;16051;53.024;8.630;2023-03-01T08:17:36;2.00;99.90
17938;DHT22;16051;53.024;8.630;2023-03-01T08:21:38;2.20;99.90
17938;DHT22;16051;53.024;8.630;2023-03-01T08:25:41;2.30;99.90
17938;DHT22;16051;53.024;8.630;2023-03-01T08:29:44;2.50;99.90
17938;DHT22;16051;53.024;8.630;2023-03-01T08:33:47;2.70;99.90
17938;DHT22;16051;53.024;8.630;2023-03-01T08:38:06;2.90;99.90
17938;DHT22;16051;53.024;8.630;2023-03-01T08:42:08;3.00;99.90
17938;DHT22;16051;53.024;8.630;2023-03-01T08:46:12;3.10;99.90
17938;DHT22;16051;53.024;8.630;2023-03-01T08:50:15;3.30;99.90
17938;DHT22;16051;53.024;8.630;2023-03-01T08:54:20;3.40;99.90
17938;DHT22;16051;53.024;8.630;2023-03-01T08:58:23;3.60;99.90
17938;DHT22;16051;53.024;8.630;2023-03-01T09:02:27;3.70;99.90
17938;DHT22;16051;53.024;8.630;2023-03-01T09:06:30;3.80;99.90
17938;DHT22;16051;53.024;8.630;2023-03-01T09:10:37;4.00;99.90
17938;DHT22;16051;53.024;8.630;2023-03-01T09:14:39;4.00;99.90
17938;DHT22;16051;53.024;8.630;2023-03-01T09:18:44;4.10;99.90
17938;DHT22;16051;53.024;8.630;2023-03-01T09:23:08;4.30;99.90
17938;DHT22;16051;53.024;8.630;2023-03-01T09:27:10;4.70;99.90
17938;DHT22;16051;53.024;8.630;2023-03-01T09:31:16;5.00;99.90
17938;DHT22;16051;53.024;8.630;2023-03-01T09:35:21;5.30;99.90
17938;DHT22;16051;53.024;8.630;2023-03-01T09:39:30;5.50;99.90
17938;DHT22;16051;53.024;8.630;2023-03-01T09:43:41;5.70;99.90
17938;DHT22;16051;53.024;8.630;2023-03-01T09:47:46;6.20;99.90
17938;DHT22;16051;53.024;8.630;2023-03-01T09:52:00;6.60;99.90
17938;DHT22;16051;53.024;8.630;2023-03-01T09:56:14;7.30;99.90
17938;DHT22;16051;53.024;8.630;2023-03-01T10:00:30;8.00;99.90
17938;DHT22;16051;53.024;8.630;2023-03-01T10:04:44;8.60;99.90
17938;DHT22;16051;53.024;8.630;2023-03-01T10:08:54;9.10;99.90
17938;DHT22;16051;53.024;8.630;2023-03-01T10:13:14;9.60;99.90
17938;DHT22;16051;53.024;8.630;2023-03-01T10:17:28;10.30;99.90
17938;DHT22;16051;53.024;8.630;2023-03-01T10:21:46;10.70;99.90
17938;DHT22;16051;53.024;8.630;2023-03-01T10:26:19;11.10;99.90
17938;DHT22;16051;53.024;8.630;2023-03-01T10:30:35;11.70;97.60
17938;DHT22;16051;53.024;8.630;2023-03-01T10:34:40;12.10;95.10
17938;DHT22;16051;53.024;8.630;2023-03-01T10:38:49;12.70;93.30
17938;DHT22;16051;53.024;8.630;2023-03-01T10:43:00;13.10;91.50
17938;DHT22;16051;53.024;8.630;2023-03-01T10:47:05;13.60;89.80
17938;DHT22;16051;53.024;8.630;2023-03-01T10:51:17;14.10;86.10
17938;DHT22;16051;53.024;8.630;2023-03-01T10:55:26;14.50;83.40
17938;DHT22;16051;53.024;8.630;2023-03-01T10:59:35;14.80;81.30
17938;DHT22;16051;53.024;8.630;2023-03-01T11:03:39;15.20;79.30
17938;DHT22;16051;53.024;8.630;2023-03-01T11:07:52;15.70;77.00
17938;DHT22;16051;53.024;8.630;2023-03-01T11:12:00;16.00;75.50
17938;DHT22;16051;53.024;8.630;2023-03-01T11:16:06;16.60;72.80
17938;DHT22;16051;53.024;8.630;2023-03-01T11:20:20;16.90;71.30
17938;DHT22;16051;53.024;8.630;2023-03-01T11:24:31;17.20;69.30
17938;DHT22;16051;53.024;8.630;2023-03-01T11:28:47;17.50;67.50
17938;DHT22;16051;53.024;8.630;2023-03-01T11:33:03;16.30;67.10
17938;DHT22;16051;53.024;8.630;2023-03-01T11:37:32;16.50;69.40
17938;DHT22;16051;53.024;8.630;2023-03-01T11:41:39;17.80;67.00
17938;DHT22;16051;53.024;8.630;2023-03-01T11:45:53;18.20;64.90
17938;DHT22;16051;53.024;8.630;2023-03-01T11:50:30;18.40;65.20
17938;DHT22;16051;53.024;8.630;2023-03-01T11:54:50;18.70;64.50
17938;DHT22;16051;53.024;8.630;2023-03-01T11:59:25;18.70;64.60
17938;DHT22;16051;53.024;8.630;2023-03-01T12:03:59;18.90;64.40
17938;DHT22;16051;53.024;8.630;2023-03-01T12:08:22;18.70;65.80
17938;DHT22;16051;53.024;8.630;2023-03-01T12:12:42;18.40;66.20
17938;DHT22;16051;53.024;8.630;2023-03-01T12:17:07;18.50;66.50
17938;DHT22;16051;53.024;8.630;2023-03-01T12:21:34;18.30;67.20
17938;DHT22;16051;53.024;8.630;2023-03-01T12:25:53;18.30;67.60
17938;DHT22;16051;53.024;8.630;2023-03-01T12:30:06;18.70;67.20
17938;DHT22;16051;53.024;8.630;2023-03-01T12:34:34;19.10;69.40
17938;DHT22;16051;53.024;8.630;2023-03-01T12:38:50;19.40;69.60
17938;DHT22;16051;53.024;8.630;2023-03-01T12:43:17;19.70;70.50
17938;DHT22;16051;53.024;8.630;2023-03-01T12:47:41;20.00;69.60
17938;DHT22;16051;53.024;8.630;2023-03-01T12:51:58;20.10;70.20
17938;DHT22;16051;53.024;8.630;2023-03-01T12:56:05;20.30;68.40
17938;DHT22;16051;53.024;8.630;2023-03-01T13:00:25;20.20;66.50
17938;DHT22;16051;53.024;8.630;2023-03-01T13:04:55;20.50;65.00
17938;DHT22;16051;53.024;8.630;2023-03-01T13:09:16;21.00;62.00
17938;DHT22;16051;53.024;8.630;2023-03-01T13:13:27;21.10;59.80
17938;DHT22;16051;53.024;8.630;2023-03-01T13:17:40;22.00;58.70
17938;DHT22;16051;53.024;8.630;2023-03-01T13:21:47;24.30;56.30
17938;DHT22;16051;53.024;8.630;2023-03-01T13:26:11;25.70;52.50
17938;DHT22;16051;53.024;8.630;2023-03-01T13:30:41;26.60;49.70
17938;DHT22;16051;53.024;8.630;2023-03-01T13:34:50;27.30;46.90
17938;DHT22;16051;53.024;8.630;2023-03-01T13:39:04;28.30;45.50
17938;DHT22;16051;53.024;8.630;2023-03-01T13:43:30;28.90;43.70
17938;DHT22;16051;53.024;8.630;2023-03-01T13:47:34;29.00;42.00
17938;DHT22;16051;53.024;8.630;2023-03-01T13:51:39;29.30;41.10
17938;DHT22;16051;53.024;8.630;2023-03-01T13:55:43;29.50;40.30
17938;DHT22;16051;53.024;8.630;2023-03-01T13:59:47;29.90;39.40
17938;DHT22;16051;53.024;8.630;2023-03-01T14:03:49;30.00;38.50
17938;DHT22;16051;53.024;8.630;2023-03-01T14:07:53;30.10;38.30
17938;DHT22;16051;53.024;8.630;2023-03-01T14:12:21;30.20;37.90
17938;DHT22;16051;53.024;8.630;2023-03-01T14:16:37;30.00;37.40
17938;DHT22;16051;53.024;8.630;2023-03-01T14:20:59;30.00;37.40
17938;DHT22;16051;53.024;8.630;2023-03-01T14:25:06;30.40;36.60
17938;DHT22;16051;53.024;8.630;2023-03-01T14:29:25;27.00;38.50
17938;DHT22;16051;53.024;8.630;2023-03-01T14:33:35;29.00;37.70
17938;DHT22;16051;53.024;8.630;2023-03-01T14:37:40;29.60;36.90
17938;DHT22;16051;53.024;8.630;2023-03-01T14:46:20;28.90;36.90
17938;DHT22;16051;53.024;8.630;2023-03-01T14:50:27;28.00;37.50
17938;DHT22;16051;53.024;8.630;2023-03-01T14:54:40;28.20;37.90
17938;DHT22;16051;53.024;8.630;2023-03-01T14:58:46;27.30;38.10
17938;DHT22;16051;53.024;8.630;2023-03-01T15:03:12;26.60;39.10
17938;DHT22;16051;53.024;8.630;2023-03-01T15:07:19;26.20;39.50
17938;DHT22;16051;53.024;8.630;2023-03-01T15:11:24;26.00;39.60
17938;DHT22;16051;53.024;8.630;2023-03-01T15:15:35;24.70;41.10
17938;DHT22;16051;53.024;8.630;2023-03-01T15:20:03;24.80;41.40
17938;DHT22;16051;53.024;8.630;2023-03-01T15:24:17;23.80;42.10
17938;DHT22;16051;53.024;8.630;2023-03-01T15:28:26;23.60;42.80
17938;DHT22;16051;53.024;8.630;2023-03-01T15:32:34;23.10;43.00
17938;DHT22;16051;53.024;8.630;2023-03-01T15:36:42;22.50;43.30
17938;DHT22;16051;53.024;8.630;2023-03-01T15:40:49;21.80;44.60
17938;DHT22;16051;53.024;8.630;2023-03-01T15:45:19;21.30;45.20
17938;DHT22;16051;53.024;8.630;2023-03-01T15:49:36;20.60;46.20
17938;DHT22;16051;53.024;8.630;2023-03-01T15:53:40;20.20;46.80
17938;DHT22;16051;53.024;8.630;2023-03-01T15:58:00;20.10;47.10
17938;DHT22;16051;53.024;8.630;2023-03-01T16:02:08;20.30;46.90
17938;DHT22;16051;53.024;8.630;2023-03-01T16:06:16;20.20;47.20
17938;DHT22;16051;53.024;8.630;2023-03-01T16:10:18;19.90;47.40
17938;DHT22;16051;53.024;8.630;2023-03-01T16:14:21;19.20;48.30
17938;DHT22;16051;53.024;8.630;2023-03-01T16:18:23;18.50;49.30
17938;DHT22;16051;53.024;8.630;2023-03-01T16:22:53;17.50;51.00
17938;DHT22;16051;53.024;8.630;2023-03-01T16:26:56;16.90;52.00
17938;DHT22;16051;53.024;8.630;2023-03-01T16:30:58;16.50;52.90
17938;DHT22;16051;53.024;8.630;2023-03-01T16:35:01;16.10;53.60
17938;DHT22;16051;53.024;8.630;2023-03-01T16:39:05;15.70;54.40
17938;DHT22;16051;53.024;8.630;2023-03-01T16:43:08;15.40;55.10
17938;DHT22;16051;53.024;8.630;2023-03-01T16:47:11;15.10;55.50
17938;DHT22;16051;53.024;8.630;2023-03-01T16:51:13;14.80;56.30
17938;DHT22;16051;53.024;8.630;2023-03-01T16:55:17;14.50;56.90
17938;DHT22;16051;53.024;8.630;2023-03-01T16:59:36;14.20;57.60
17938;DHT22;16051;53.024;8.630;2023-03-01T17:03:39;13.80;58.20
17938;DHT22;16051;53.024;8.630;2023-03-01T17:07:41;13.50;58.90
17938;DHT22;16051;53.024;8.630;2023-03-01T17:11:58;13.30;59.30
17938;DHT22;16051;53.024;8.630;2023-03-01T17:16:02;13.10;59.90
17938;DHT22;16051;53.024;8.630;2023-03-01T17:20:07;12.80;60.90
17938;DHT22;16051;53.024;8.630;2023-03-01T17:28:56;13.30;63.20
17938;DHT22;16051;53.024;8.630;2023-03-01T17:33:07;12.90;65.30
17938;DHT22;16051;53.024;8.630;2023-03-01T17:37:10;12.30;66.40
17938;DHT22;16051;53.024;8.630;2023-03-01T17:41:12;12.00;67.00
17938;DHT22;16051;53.024;8.630;2023-03-01T17:45:18;11.70;67.90
17938;DHT22;16051;53.024;8.630;2023-03-01T17:49:20;11.60;68.50
17938;DHT22;16051;53.024;8.630;2023-03-01T17:53:26;11.40;68.80
17938;DHT22;16051;53.024;8.630;2023-03-01T17:57:28;11.20;69.30
17938;DHT22;16051;53.024;8.630;2023-03-01T18:01:31;11.10;70.10
17938;DHT22;16051;53.024;8.630;2023-03-01T18:05:35;10.90;70.50
17938;DHT22;16051;53.024;8.630;2023-03-01T18:09:38;10.80;71.20
17938;DHT22;16051;53.024;8.630;2023-03-01T18:13:47;10.70;71.60
17938;DHT22;16051;53.024;8.630;2023-03-01T18:17:55;10.50;72.60
17938;DHT22;16051;53.024;8.630;2023-03-01T18:22:00;10.30;73.30
17938;DHT22;16051;53.024;8.630;2023-03-01T18:26:05;10.20;74.20
17938;DHT22;16051;53.024;8.630;2023-03-01T18:30:13;10.10;74.80
17938;DHT22;16051;53.024;8.630;2023-03-01T18:34:25;10.00;76.40
17938;DHT22;16051;53.024;8.630;2023-03-01T18:38:28;9.80;78.60
17938;DHT22;16051;53.024;8.630;2023-03-01T18:42:30;9.80;80.30
17938;DHT22;16051;53.024;8.630;2023-03-01T18:46:33;9.60;80.90
17938;DHT22;16051;53.024;8.630;2023-03-01T18:50:38;9.50;82.30
17938;DHT22;16051;53.024;8.630;2023-03-01T18:54:40;9.20;84.60
17938;DHT22;16051;53.024;8.630;2023-03-01T18:58:42;9.20;85.80
17938;DHT22;16051;53.024;8.630;2023-03-01T19:02:44;9.10;87.10
17938;DHT22;16051;53.024;8.630;2023-03-01T19:06:48;8.90;88.90
17938;DHT22;16051;53.024;8.630;2023-03-01T19:10:59;8.90;90.30
17938;DHT22;16051;53.024;8.630;2023-03-01T19:15:03;8.70;91.00
17938;DHT22;16051;53.024;8.630;2023-03-01T19:19:09;8.60;92.20
17938;DHT22;16051;53.024;8.630;2023-03-01T19:23:12;8.40;92.90
17938;DHT22;16051;53.024;8.630;2023-03-01T19:27:16;8.30;94.00
17938;DHT22;16051;53.024;8.630;2023-03-01T19:31:20;8.20;94.70
17938;DHT22;16051;53.024;8.630;2023-03-01T19:35:25;8.20;95.60
17938;DHT22;16051;53.024;8.630;2023-03-01T19:40:00;8.10;96.60
17938;DHT22;16051;53.024;8.630;2023-03-01T19:44:03;8.00;97.60
17938;DHT22;16051;53.024;8.630;2023-03-01T19:48:05;8.00;98.50
17938;DHT22;16051;53.024;8.630;2023-03-01T19:52:08;7.90;99.40
17938;DHT22;16051;53.024;8.630;2023-03-01T19:56:28;7.90;99.90
17938;DHT22;16051;53.024;8.630;2023-03-01T20:00:30;7.90;99.90
17938;DHT22;16051;53.024;8.630;2023-03-01T20:04:33;7.80;99.90
17938;DHT22;16051;53.024;8.630;2023-03-01T20:08:35;7.70;99.90
17938;DHT22;16051;53.024;8.630;2023-03-01T20:12:40;7.60;99.90
17938;DHT22;16051;53.024;8.630;2023-03-01T20:16:42;7.60;99.90
17938;DHT22;16051;53.024;8.630;2023-03-01T20:20:47;7.60;99.90
17938;DHT22;16051;53.024;8.630;2023-03-01T20:24:50;7.60;99.90
17938;DHT22;16051;53.024;8.630;2023-03-01T20:28:54;7.50;99.90
17938;DHT22;16051;53.024;8.630;2023-03-01T20:32:59;7.50;99.90
17938;DHT22;16051;53.024;8.630;2023-03-01T20:37:02;7.40;99.90
17938;DHT22;16051;53.024;8.630;2023-03-01T20:41:06;7.40;99.90
17938;DHT22;16051;53.024;8.630;2023-03-01T20:45:11;7.30;99.90
17938;DHT22;16051;53.024;8.630;2023-03-01T20:49:13;7.30;99.90
17938;DHT22;16051;53.024;8.630;2023-03-01T20:53:16;7.30;99.90
17938;DHT22;16051;53.024;8.630;2023-03-01T20:57:52;7.30;99.90
17938;DHT22;16051;53.024;8.630;2023-03-01T21:01:55;7.20;99.90
17938;DHT22;16051;53.024;8.630;2023-03-01T21:05:59;7.20;99.90
17938;DHT22;16051;53.024;8.630;2023-03-01T21:10:10;7.10;99.90
17938;DHT22;16051;53.024;8.630;2023-03-01T21:14:12;7.10;99.90
17938;DHT22;16051;53.024;8.630;2023-03-01T21:18:19;7.20;99.90
17938;DHT22;16051;53.024;8.630;2023-03-01T21:22:21;7.10;99.90
17938;DHT22;16051;53.024;8.630;2023-03-01T21:26:25;7.10;99.90
17938;DHT22;16051;53.024;8.630;2023-03-01T21:30:28;7.10;99.90
17938;DHT22;16051;53.024;8.630;2023-03-01T21:34:34;7.10;99.90
17938;DHT22;16051;53.024;8.630;2023-03-01T21:38:38;7.00;99.90
17938;DHT22;16051;53.024;8.630;2023-03-01T21:42:42;7.00;99.90
17938;DHT22;16051;53.024;8.630;2023-03-01T21:46:45;7.00;99.90
17938;DHT22;16051;53.024;8.630;2023-03-01T21:50:55;7.00;99.90
17938;DHT22;16051;53.024;8.630;2023-03-01T21:54:58;7.00;99.90
17938;DHT22;16051;53.024;8.630;2023-03-01T21:59:07;7.00;99.90
17938;DHT22;16051;53.024;8.630;2023-03-01T22:03:13;6.90;99.90
17938;DHT22;16051;53.024;8.630;2023-03-01T22:07:17;6.90;99.90
17938;DHT22;16051;53.024;8.630;2023-03-01T22:11:20;6.90;99.90
17938;DHT22;16051;53.024;8.630;2023-03-01T22:15:53;6.90;99.90
17938;DHT22;16051;53.024;8.630;2023-03-01T22:19:55;6.90;99.90
17938;DHT22;16051;53.024;8.630;2023-03-01T22:23:59;6.80;99.90
17938;DHT22;16051;53.024;8.630;2023-03-01T22:28:13;6.70;99.90
17938;DHT22;16051;53.024;8.630;2023-03-01T22:32:15;6.70;99.90
17938;DHT22;16051;53.024;8.630;2023-03-01T22:36:18;6.60;99.90
17938;DHT22;16051;53.024;8.630;2023-03-01T22:40:23;6.60;99.90
17938;DHT22;16051;53.024;8.630;2023-03-01T22:44:25;6.50;99.90
17938;DHT22;16051;53.024;8.630;2023-03-01T22:48:27;6.50;99.90
17938;DHT22;16051;53.024;8.630;2023-03-01T22:52:29;6.50;99.90
17938;DHT22;16051;53.024;8.630;2023-03-01T22:56:34;6.40;99.90
17938;DHT22;16051;53.024;8.630;2023-03-01T23:00:37;6.40;99.90
17938;DHT22;16051;53.024;8.630;2023-03-01T23:04:39;6.30;99.90
17938;DHT22;16051;53.024;8.630;2023-03-01T23:08:47;6.30;99.90
17938;DHT22;16051;53.024;8.630;2023-03-01T23:12:53;6.30;99.90
17938;DHT22;16051;53.024;8.630;2023-03-01T23:16:55;6.30;99.90
17938;DHT22;16051;53.024;8.630;2023-03-01T23:21:00;6.20;99.90
17938;DHT22;16051;53.024;8.630;2023-03-01T23:25:09;6.20;99.90
17938;DHT22;16051;53.024;8.630;2023-03-01T23:29:14;6.10;99.90
17938;DHT22;16051;53.024;8.630;2023-03-01T23:33:16;6.00;99.90
17938;DHT22;16051;53.024;8.630;2023-03-01T23:37:21;6.00;99.90
17938;DHT22;16051;53.024;8.630;2023-03-01T23:41:26;6.00;99.90
17938;DHT22;16051;53.024;8.630;2023-03-01T23:45:31;5.90;99.90
17938;DHT22;16051;53.024;8.630;2023-03-01T23:49:37;5.90;99.90
17938;DHT22;16051;53.024;8.630;2023-03-01T23:53:41;5.90;99.90
17938;DHT22;16051;53.024;8.630;2023-03-01T23:58:00;5.80;99.90
